createdAt,value
2019-02-09T00:00:58.376Z,2.80
2019-02-09T00:03:25.634Z,1.60
2019-02-09T00:05:52.789Z,1.90
2019-02-09T00:08:19.989Z,3.17
2019-02-09T00:10:47.191Z,1.30
2019-02-09T00:13:14.487Z,1.80
2019-02-09T00:15:41.700Z,1.97
2019-02-09T00:18:08.890Z,2.00
2019-02-09T00:20:36.121Z,2.70
2019-02-09T00:23:03.841Z,3.00
2019-02-09T00:25:31.097Z,2.37
2019-02-09T00:27:58.287Z,1.50
2019-02-09T00:30:25.496Z,2.03
2019-02-09T00:32:52.666Z,1.83
2019-02-09T00:35:19.927Z,4.97
2019-02-09T00:37:47.160Z,1.37
2019-02-09T00:40:14.388Z,1.30
2019-02-09T00:42:41.602Z,2.00
2019-02-09T00:45:09.028Z,1.77
2019-02-09T00:47:36.363Z,1.00
2019-02-09T00:50:04.127Z,2.60
2019-02-09T00:52:31.317Z,2.60
2019-02-09T00:54:58.595Z,2.20
2019-02-09T00:57:25.791Z,7.10
2019-02-09T00:59:54.297Z,2.50
2019-02-09T01:02:21.858Z,1.40
2019-02-09T01:04:49.019Z,2.17
2019-02-09T01:07:16.229Z,1.90
2019-02-09T01:09:43.424Z,1.37
2019-02-09T01:12:10.619Z,3.83
2019-02-09T01:14:37.939Z,2.20
2019-02-09T01:17:05.143Z,1.80
2019-02-09T01:19:32.358Z,1.30
2019-02-09T01:21:59.518Z,2.03
2019-02-09T01:24:26.710Z,2.30
2019-02-09T01:26:53.947Z,1.93
2019-02-09T01:29:21.166Z,1.60
2019-02-09T01:31:48.378Z,1.40
2019-02-09T01:34:15.553Z,2.40
2019-02-09T01:36:42.835Z,2.20
2019-02-09T01:39:10.042Z,2.40
2019-02-09T01:41:37.241Z,1.57
2019-02-09T01:44:04.482Z,2.50
2019-02-09T01:46:31.658Z,2.50
2019-02-09T01:48:58.873Z,1.97
2019-02-09T01:51:26.046Z,1.30
2019-02-09T01:53:53.775Z,1.83
2019-02-09T01:56:20.952Z,2.07
2019-02-09T01:58:48.182Z,2.20
2019-02-09T02:01:15.398Z,2.23
2019-02-09T02:03:42.622Z,1.40
2019-02-09T02:06:09.810Z,1.73
2019-02-09T02:08:36.962Z,2.33
2019-02-09T02:11:04.379Z,2.63
2019-02-09T02:13:31.626Z,2.50
2019-02-09T02:15:58.919Z,1.33
2019-02-09T02:18:26.141Z,2.00
2019-02-09T02:20:53.301Z,2.83
2019-02-09T02:23:20.620Z,1.30
2019-02-09T02:25:47.807Z,3.10
2019-02-09T02:28:14.984Z,1.60
2019-02-09T02:30:42.260Z,1.47
2019-02-09T02:33:09.487Z,6.00
2019-02-09T02:35:36.718Z,1.53
2019-02-09T02:38:03.976Z,1.87
2019-02-09T02:40:31.202Z,1.40
2019-02-09T02:42:58.392Z,2.53
2019-02-09T02:45:25.592Z,2.10
2019-02-09T02:47:52.866Z,2.23
2019-02-09T02:50:20.112Z,1.30
2019-02-09T02:52:47.376Z,1.30
2019-02-09T02:55:24.880Z,1.50
2019-02-09T02:57:52.550Z,1.30
2019-02-09T03:00:31.825Z,2.07
2019-02-09T03:02:53.690Z,1.83
2019-02-09T03:05:21.605Z,2.37
2019-02-09T03:07:48.835Z,2.70
2019-02-09T03:10:16.116Z,2.20
2019-02-09T03:12:43.366Z,1.40
2019-02-09T03:15:16.363Z,1.50
2019-02-09T03:17:43.564Z,1.20
2019-02-09T03:20:12.627Z,1.30
2019-02-09T03:22:39.814Z,2.23
2019-02-09T03:25:09.190Z,1.30
2019-02-09T03:27:36.365Z,1.67
2019-02-09T03:30:05.105Z,1.67
2019-02-09T03:32:32.355Z,1.30
2019-02-09T03:34:59.591Z,1.30
2019-02-09T03:37:26.835Z,2.60
2019-02-09T03:39:54.014Z,1.73
2019-02-09T03:42:21.269Z,1.50
2019-02-09T03:44:48.407Z,1.60
2019-02-09T03:47:15.618Z,1.60
2019-02-09T03:49:42.877Z,1.50
2019-02-09T03:52:10.080Z,1.53
2019-02-09T03:54:37.330Z,1.57
2019-02-09T03:57:04.499Z,1.60
2019-02-09T03:59:31.811Z,1.80
2019-02-09T04:01:58.985Z,2.53
2019-02-09T04:04:26.142Z,3.10
2019-02-09T04:06:53.368Z,1.80
2019-02-09T04:09:20.522Z,1.83
2019-02-09T04:11:47.762Z,2.10
2019-02-09T04:14:14.922Z,1.90
2019-02-09T04:16:42.178Z,3.53
2019-02-09T04:19:09.395Z,2.93
2019-02-09T04:21:36.721Z,3.40
2019-02-09T04:24:03.921Z,1.53
2019-02-09T04:26:31.121Z,1.53
2019-02-09T04:28:58.352Z,2.17
2019-02-09T04:31:25.545Z,1.20
2019-02-09T04:33:52.735Z,1.57
2019-02-09T04:36:19.890Z,1.40
2019-02-09T04:38:47.175Z,1.43
2019-02-09T04:41:14.378Z,1.87
2019-02-09T04:43:41.617Z,2.50
2019-02-09T04:46:08.862Z,1.30
2019-02-09T04:48:36.055Z,1.20
2019-02-09T04:51:03.309Z,1.40
2019-02-09T04:53:30.471Z,1.90
2019-02-09T04:55:57.712Z,1.57
2019-02-09T04:58:24.914Z,3.90
2019-02-09T05:00:52.099Z,1.40
2019-02-09T05:03:19.336Z,2.07
2019-02-09T05:05:46.549Z,1.83
2019-02-09T05:08:13.758Z,1.27
2019-02-09T05:10:40.981Z,1.90
2019-02-09T05:13:08.161Z,1.83
2019-02-09T05:15:35.370Z,1.77
2019-02-09T05:18:02.548Z,4.70
2019-02-09T05:20:29.700Z,1.53
2019-02-09T05:22:56.939Z,1.90
2019-02-09T05:25:24.104Z,1.20
2019-02-09T05:27:51.425Z,1.37
2019-02-09T05:30:20.633Z,1.77
2019-02-09T05:32:47.815Z,2.80
2019-02-09T05:35:15.009Z,1.20
2019-02-09T05:37:42.286Z,3.40
2019-02-09T05:40:11.079Z,1.83
2019-02-09T05:42:38.306Z,1.20
2019-02-09T05:45:07.183Z,2.00
2019-02-09T05:47:34.406Z,1.57
2019-02-09T05:50:01.602Z,1.83
2019-02-09T05:52:28.793Z,1.20
2019-02-09T05:54:56.040Z,2.13
2019-02-09T05:57:23.314Z,2.23
2019-02-09T05:59:50.493Z,1.63
2019-02-09T06:02:17.663Z,1.83
2019-02-09T06:04:44.892Z,1.60
2019-02-09T06:07:12.084Z,1.40
2019-02-09T06:09:39.244Z,1.93
2019-02-09T06:12:06.430Z,1.83
2019-02-09T06:14:33.634Z,1.67
2019-02-09T06:17:00.885Z,1.33
2019-02-09T06:19:28.069Z,2.23
2019-02-09T06:21:55.282Z,1.33
2019-02-09T06:24:22.427Z,1.13
2019-02-09T06:26:49.669Z,1.30
2019-02-09T06:29:16.974Z,1.57
2019-02-09T06:31:44.202Z,2.20
2019-02-09T06:34:11.367Z,1.40
2019-02-09T06:36:38.594Z,1.30
2019-02-09T06:39:07.455Z,1.53
2019-02-09T06:41:34.615Z,1.00
2019-02-09T06:44:01.771Z,1.80
2019-02-09T06:46:29.003Z,1.10
2019-02-09T06:48:56.233Z,1.40
2019-02-09T06:51:23.455Z,1.57
2019-02-09T06:53:50.645Z,1.63
2019-02-09T06:56:17.865Z,1.60
2019-02-09T06:58:45.105Z,2.10
2019-02-09T07:01:12.361Z,1.90
2019-02-09T07:03:39.635Z,2.00
2019-02-09T07:06:06.829Z,2.27
2019-02-09T07:08:34.024Z,1.23
2019-02-09T07:11:01.225Z,1.43
2019-02-09T07:13:28.473Z,2.60
2019-02-09T07:15:55.677Z,1.87
2019-02-09T07:18:22.843Z,1.10
2019-02-09T07:20:50.054Z,1.90
2019-02-09T07:23:17.241Z,4.33
2019-02-09T07:25:44.439Z,2.40
2019-02-09T07:28:11.605Z,1.20
2019-02-09T07:30:38.856Z,1.37
2019-02-09T07:33:06.164Z,1.67
2019-02-09T07:35:33.354Z,1.40
2019-02-09T07:38:00.591Z,1.60
2019-02-09T07:40:27.807Z,1.97
2019-02-09T07:42:54.986Z,1.87
2019-02-09T07:45:24.046Z,1.60
2019-02-09T07:47:51.262Z,1.73
2019-02-09T07:50:19.124Z,2.27
2019-02-09T07:52:46.397Z,1.87
2019-02-09T07:55:13.786Z,1.57
2019-02-09T07:57:40.988Z,1.90
2019-02-09T08:00:12.034Z,1.40
2019-02-09T08:02:39.278Z,1.83
2019-02-09T08:05:06.514Z,1.50
2019-02-09T08:07:33.701Z,3.23
2019-02-09T08:10:00.937Z,1.90
2019-02-09T08:12:28.259Z,1.83
2019-02-09T08:14:55.477Z,3.50
2019-02-09T08:17:22.644Z,2.37
2019-02-09T08:19:49.848Z,1.40
2019-02-09T08:22:17.061Z,1.83
2019-02-09T08:24:44.236Z,1.37
2019-02-09T08:27:11.488Z,1.77
2019-02-09T08:29:38.666Z,2.50
2019-02-09T08:32:12.448Z,2.17
2019-02-09T08:34:34.994Z,2.70
2019-02-09T08:37:02.295Z,2.20
2019-02-09T08:39:29.482Z,2.50
2019-02-09T08:41:56.699Z,3.20
2019-02-09T08:44:23.913Z,3.77
2019-02-09T08:46:51.119Z,2.10
2019-02-09T08:49:18.365Z,2.23
2019-02-09T08:51:45.606Z,3.17
2019-02-09T08:54:12.794Z,2.30
2019-02-09T08:56:39.985Z,3.30
2019-02-09T08:59:07.183Z,3.27
2019-02-09T09:01:34.360Z,3.77
2019-02-09T09:04:01.599Z,1.77
2019-02-09T09:06:28.773Z,3.27
2019-02-09T09:08:55.975Z,2.07
2019-02-09T09:11:23.206Z,3.47
2019-02-09T09:13:50.441Z,1.77
2019-02-09T09:16:17.658Z,2.13
2019-02-09T09:18:44.895Z,1.70
2019-02-09T09:21:12.119Z,2.67
2019-02-09T09:23:39.332Z,1.83
2019-02-09T09:26:06.518Z,2.03
2019-02-09T09:28:33.721Z,2.70
2019-02-09T09:31:00.940Z,2.77
2019-02-09T09:33:28.329Z,3.37
2019-02-09T09:35:55.678Z,2.80
2019-02-09T09:38:22.876Z,3.10
2019-02-09T09:40:50.122Z,3.63
2019-02-09T09:43:17.314Z,5.50
2019-02-09T09:45:44.485Z,2.47
2019-02-09T09:48:13.339Z,3.30
2019-02-09T09:50:40.542Z,3.07
2019-02-09T09:53:07.725Z,4.03
2019-02-09T09:55:34.957Z,3.83
2019-02-09T09:58:02.160Z,3.27
2019-02-09T10:00:29.337Z,1.83
2019-02-09T10:02:56.586Z,3.23
2019-02-09T10:05:23.797Z,5.53
2019-02-09T10:07:50.982Z,3.80
2019-02-09T10:10:18.330Z,5.87
2019-02-09T10:12:45.637Z,2.93
2019-02-09T10:15:14.897Z,3.27
2019-02-09T10:17:42.067Z,2.40
2019-02-09T10:20:11.910Z,3.87
2019-02-09T10:22:39.173Z,3.50
2019-02-09T10:25:06.583Z,3.77
2019-02-09T10:27:33.742Z,5.97
2019-02-09T10:30:00.972Z,2.67
2019-02-09T10:32:28.182Z,3.83
2019-02-09T10:34:55.406Z,2.13
2019-02-09T10:37:22.656Z,5.40
2019-02-09T10:39:49.825Z,4.80
2019-02-09T10:42:17.021Z,5.07
2019-02-09T10:44:44.235Z,4.60
2019-02-09T10:47:11.439Z,4.67
2019-02-09T10:49:38.661Z,2.70
2019-02-09T10:52:05.863Z,3.43
2019-02-09T10:54:33.053Z,2.97
2019-02-09T10:57:00.237Z,5.73
2019-02-09T10:59:27.453Z,3.83
2019-02-09T11:01:54.638Z,2.90
2019-02-09T11:04:21.850Z,3.80
2019-02-09T11:06:49.054Z,2.97
2019-02-09T11:09:20.492Z,5.77
2019-02-09T11:11:47.669Z,3.20
2019-02-09T11:14:14.866Z,4.67
2019-02-09T11:16:42.066Z,5.17
2019-02-09T11:19:09.299Z,4.60
2019-02-09T11:21:36.510Z,5.97
2019-02-09T11:24:03.748Z,3.50
2019-02-09T11:26:30.977Z,3.77
2019-02-09T11:28:58.164Z,5.27
2019-02-09T11:31:25.423Z,4.17
2019-02-09T11:33:52.642Z,6.33
2019-02-09T11:36:19.813Z,7.30
2019-02-09T11:38:47.080Z,7.43
2019-02-09T11:41:14.295Z,3.90
2019-02-09T11:43:41.559Z,3.20
2019-02-09T11:46:08.740Z,3.30
2019-02-09T11:48:35.906Z,5.83
2019-02-09T11:51:03.174Z,7.90
2019-02-09T11:53:30.398Z,3.77
2019-02-09T11:55:57.653Z,5.17
2019-02-09T11:58:24.896Z,3.93
2019-02-09T12:00:52.363Z,5.80
2019-02-09T12:03:19.623Z,4.60
2019-02-09T12:05:46.804Z,7.57
2019-02-09T12:08:13.985Z,5.33
2019-02-09T12:10:41.191Z,6.50
2019-02-09T12:13:08.379Z,5.00
2019-02-09T12:15:35.630Z,7.20
2019-02-09T12:18:02.866Z,5.07
2019-02-09T12:20:30.061Z,3.93
2019-02-09T12:22:57.394Z,5.43
2019-02-09T12:25:26.978Z,9.27
2019-02-09T12:27:54.162Z,9.80
2019-02-09T12:30:23.111Z,5.63
2019-02-09T12:32:50.263Z,5.77
2019-02-09T12:35:17.827Z,6.73
2019-02-09T12:37:45.113Z,4.37
2019-02-09T12:40:18.829Z,4.90
2019-02-09T12:42:46.045Z,4.97
2019-02-09T12:45:14.097Z,8.00
2019-02-09T12:47:41.326Z,7.87
2019-02-09T12:50:09.789Z,11.47
2019-02-09T12:52:37.017Z,9.77
2019-02-09T12:55:04.747Z,4.13
2019-02-09T12:57:31.893Z,5.17
2019-02-09T12:59:59.118Z,7.67
2019-02-09T13:02:26.320Z,6.83
2019-02-09T13:04:53.522Z,9.80
2019-02-09T13:07:20.715Z,8.07
2019-02-09T13:09:47.935Z,5.83
2019-02-09T13:12:15.123Z,6.67
2019-02-09T13:14:42.358Z,5.67
2019-02-09T13:17:09.559Z,6.30
2019-02-09T13:19:36.774Z,8.47
2019-02-09T13:22:04.003Z,7.03
2019-02-09T13:24:31.223Z,6.80
2019-02-09T13:26:58.417Z,8.20
2019-02-09T13:29:25.584Z,5.73
2019-02-09T13:31:52.808Z,8.60
2019-02-09T13:34:20.000Z,3.80
2019-02-09T13:36:47.291Z,6.40
2019-02-09T13:39:14.455Z,5.07
2019-02-09T13:41:41.707Z,7.50
2019-02-09T13:44:08.922Z,6.80
2019-02-09T13:46:36.127Z,6.70
2019-02-09T13:49:03.350Z,5.50
2019-02-09T13:51:30.586Z,5.90
2019-02-09T13:53:57.777Z,10.00
2019-02-09T13:56:25.000Z,9.53
2019-02-09T13:58:52.224Z,8.47
2019-02-09T14:01:20.331Z,10.07
2019-02-09T14:03:47.561Z,9.60
2019-02-09T14:06:14.783Z,6.60
2019-02-09T14:08:41.971Z,9.13
2019-02-09T14:11:09.180Z,7.83
2019-02-09T14:13:36.404Z,7.50
2019-02-09T14:16:08.096Z,5.10
2019-02-09T14:18:32.797Z,5.20
2019-02-09T14:21:00.051Z,5.67
2019-02-09T14:23:27.256Z,6.47
2019-02-09T14:25:54.483Z,8.00
2019-02-09T14:28:23.856Z,6.03
2019-02-09T14:30:51.004Z,4.30
2019-02-09T14:33:18.204Z,6.37
2019-02-09T14:35:45.482Z,6.67
2019-02-09T14:38:12.682Z,7.87
2019-02-09T14:40:39.887Z,9.57
2019-02-09T14:43:07.755Z,7.77
2019-02-09T14:45:37.034Z,6.57
2019-02-09T14:48:04.243Z,7.33
2019-02-09T14:50:31.458Z,12.50
2019-02-09T14:52:58.691Z,5.20
2019-02-09T14:55:27.992Z,5.43
2019-02-09T14:57:55.211Z,4.87
2019-02-09T15:00:24.821Z,8.37
2019-02-09T15:02:53.959Z,6.03
2019-02-09T15:05:21.182Z,10.40
2019-02-09T15:07:48.352Z,5.20
2019-02-09T15:10:16.836Z,5.70
2019-02-09T15:12:44.022Z,6.30
2019-02-09T15:15:17.995Z,7.07
2019-02-09T15:17:45.193Z,10.83
2019-02-09T15:20:15.230Z,10.70
2019-02-09T15:22:42.521Z,9.73
2019-02-09T15:25:09.747Z,3.83
2019-02-09T15:27:36.902Z,7.10
2019-02-09T15:30:05.799Z,8.00
2019-02-09T15:32:33.014Z,6.23
2019-02-09T15:35:00.316Z,3.73
2019-02-09T15:37:27.599Z,7.97
2019-02-09T15:39:54.812Z,5.50
2019-02-09T15:42:22.006Z,4.57
2019-02-09T15:44:49.211Z,9.10
2019-02-09T15:47:16.397Z,5.37
2019-02-09T15:49:43.705Z,6.67
2019-02-09T15:52:10.919Z,4.70
2019-02-09T15:54:38.114Z,7.10
2019-02-09T15:57:05.378Z,6.30
2019-02-09T15:59:32.547Z,8.40
2019-02-09T16:01:59.787Z,6.57
2019-02-09T16:04:27.000Z,8.13
2019-02-09T16:06:54.286Z,11.40
2019-02-09T16:09:21.481Z,6.27
2019-02-09T16:11:48.686Z,5.10
2019-02-09T16:14:15.947Z,4.97
2019-02-09T16:16:43.145Z,5.33
2019-02-09T16:19:10.398Z,8.07
2019-02-09T16:21:37.597Z,6.03
2019-02-09T16:24:04.834Z,6.77
2019-02-09T16:26:32.030Z,9.10
2019-02-09T16:28:59.371Z,9.40
2019-02-09T16:31:26.630Z,5.70
2019-02-09T16:33:53.823Z,12.87
2019-02-09T16:36:21.076Z,6.63
2019-02-09T16:38:48.320Z,6.33
2019-02-09T16:41:15.481Z,7.03
2019-02-09T16:43:42.683Z,8.50
2019-02-09T16:46:09.886Z,7.63
2019-02-09T16:48:37.042Z,5.83
2019-02-09T16:51:04.245Z,8.27
2019-02-09T16:53:31.553Z,7.73
2019-02-09T16:55:58.708Z,8.17
2019-02-09T16:58:25.889Z,7.37
2019-02-09T17:00:53.083Z,6.60
2019-02-09T17:03:20.281Z,5.00
2019-02-09T17:05:47.485Z,9.83
2019-02-09T17:08:14.669Z,8.83
2019-02-09T17:10:41.891Z,11.27
2019-02-09T17:13:09.084Z,7.67
2019-02-09T17:15:36.297Z,9.70
2019-02-09T17:18:03.660Z,8.40
2019-02-09T17:20:30.830Z,7.67
2019-02-09T17:22:58.043Z,7.00
2019-02-09T17:25:25.269Z,5.60
2019-02-09T17:27:52.471Z,5.77
2019-02-09T17:30:21.699Z,4.77
2019-02-09T17:32:48.894Z,8.47
2019-02-09T17:35:16.066Z,6.70
2019-02-09T17:37:43.349Z,8.70
2019-02-09T17:40:12.287Z,5.43
2019-02-09T17:42:39.581Z,5.07
2019-02-09T17:45:11.146Z,7.67
2019-02-09T17:47:38.460Z,8.40
2019-02-09T17:50:06.279Z,8.70
2019-02-09T17:52:33.535Z,7.83
2019-02-09T17:55:00.704Z,16.13
2019-02-09T17:57:27.875Z,9.87
2019-02-09T17:59:55.107Z,6.43
2019-02-09T18:02:22.345Z,6.67
2019-02-09T18:04:49.546Z,7.40
2019-02-09T18:07:16.740Z,7.73
2019-02-09T18:09:43.943Z,6.83
2019-02-09T18:12:11.148Z,8.87
2019-02-09T18:14:38.356Z,8.03
2019-02-09T18:17:05.620Z,7.20
2019-02-09T18:19:32.823Z,6.23
2019-02-09T18:22:00.006Z,6.80
2019-02-09T18:24:27.417Z,10.77
2019-02-09T18:26:54.695Z,6.80
2019-02-09T18:29:21.950Z,7.23
2019-02-09T18:31:49.304Z,6.37
2019-02-09T18:34:16.640Z,6.63
2019-02-09T18:36:44.068Z,6.60
2019-02-09T18:39:11.732Z,10.00
2019-02-09T18:41:39.136Z,6.03
2019-02-09T18:44:06.415Z,6.27
2019-02-09T18:46:33.795Z,11.40
2019-02-09T18:49:01.391Z,6.73
2019-02-09T18:51:28.761Z,5.80
2019-02-09T18:53:55.980Z,7.30
2019-02-09T18:56:23.191Z,6.73
2019-02-09T18:58:50.637Z,7.77
2019-02-09T19:01:17.986Z,6.60
2019-02-09T19:03:45.431Z,5.90
2019-02-09T19:06:13.969Z,7.20
2019-02-09T19:08:41.417Z,5.67
2019-02-09T19:11:08.863Z,8.00
2019-02-09T19:13:36.219Z,5.67
2019-02-09T19:16:03.967Z,10.97
2019-02-09T19:18:32.677Z,6.73
2019-02-09T19:21:01.054Z,9.10
2019-02-09T19:23:28.449Z,9.73
2019-02-09T19:25:57.583Z,10.93
2019-02-09T19:28:25.157Z,9.20
2019-02-09T19:30:52.577Z,5.80
2019-02-09T19:33:20.064Z,8.47
2019-02-09T19:35:47.519Z,9.10
2019-02-09T19:38:14.993Z,5.30
2019-02-09T19:40:45.837Z,8.67
2019-02-09T19:43:13.295Z,6.50
2019-02-09T19:45:40.879Z,7.20
2019-02-09T19:48:08.331Z,6.07
2019-02-09T19:50:35.999Z,13.23
2019-02-09T19:53:03.398Z,9.57
2019-02-09T19:55:30.878Z,9.40
2019-02-09T19:57:58.315Z,7.87
2019-02-09T20:00:33.698Z,7.00
2019-02-09T20:03:02.428Z,4.77
2019-02-09T20:05:29.878Z,7.63
2019-02-09T20:07:57.303Z,4.20
2019-02-09T20:10:27.129Z,8.23
2019-02-09T20:12:54.600Z,5.77
2019-02-09T20:15:22.009Z,4.70
2019-02-09T20:17:49.418Z,7.60
2019-02-09T20:20:16.752Z,8.97
2019-02-09T20:22:44.194Z,4.60
2019-02-09T20:25:14.075Z,7.00
2019-02-09T20:27:41.492Z,8.37
2019-02-09T20:30:18.022Z,9.67
2019-02-09T20:32:45.487Z,6.17
2019-02-09T20:35:13.533Z,6.37
2019-02-09T20:37:41.497Z,11.63
2019-02-09T20:40:14.947Z,6.00
2019-02-09T20:42:42.341Z,5.93
2019-02-09T20:45:11.183Z,8.13
2019-02-09T20:47:39.045Z,8.20
2019-02-09T20:50:07.422Z,7.03
2019-02-09T20:52:35.151Z,6.73
2019-02-09T20:55:02.687Z,6.27
2019-02-09T20:57:30.076Z,8.47
2019-02-09T20:59:57.485Z,5.77
2019-02-09T21:02:24.965Z,8.10
2019-02-09T21:04:52.345Z,5.87
2019-02-09T21:07:24.570Z,8.83
2019-02-09T21:09:49.105Z,8.77
2019-02-09T21:12:16.602Z,8.80
2019-02-09T21:14:44.051Z,7.03
2019-02-09T21:17:11.530Z,5.23
2019-02-09T21:19:40.054Z,7.80
2019-02-09T21:22:07.507Z,5.23
2019-02-09T21:24:34.931Z,6.53
2019-02-09T21:27:02.366Z,6.33
2019-02-09T21:29:29.794Z,10.43
2019-02-09T21:31:57.201Z,7.10
2019-02-09T21:34:24.714Z,9.10
2019-02-09T21:36:52.136Z,10.67
2019-02-09T21:39:19.424Z,8.80
2019-02-09T21:41:46.873Z,13.00
2019-02-09T21:44:14.194Z,12.93
2019-02-09T21:46:41.522Z,7.57
2019-02-09T21:49:08.812Z,7.33
2019-02-09T21:51:36.037Z,6.53
2019-02-09T21:54:03.296Z,6.83
2019-02-09T21:56:30.466Z,6.27
2019-02-09T21:58:57.670Z,10.67
2019-02-09T22:01:24.887Z,4.90
2019-02-09T22:03:52.109Z,9.13
2019-02-09T22:06:19.296Z,3.77
2019-02-09T22:08:46.527Z,8.70
2019-02-09T22:11:13.801Z,5.20
2019-02-09T22:13:40.909Z,5.33
2019-02-09T22:16:08.109Z,5.63
2019-02-09T22:18:35.413Z,12.67
2019-02-09T22:21:02.667Z,6.73
2019-02-09T22:23:29.845Z,4.10
2019-02-09T22:25:57.032Z,4.47
2019-02-09T22:28:24.229Z,6.70
2019-02-09T22:30:51.540Z,5.63
2019-02-09T22:33:24.780Z,5.40
2019-02-09T22:35:47.867Z,9.40
2019-02-09T22:38:15.138Z,6.50
2019-02-09T22:40:42.298Z,8.33
2019-02-09T22:43:10.593Z,5.93
2019-02-09T22:45:37.931Z,8.53
2019-02-09T22:48:06.219Z,7.80
2019-02-09T22:50:38.576Z,9.67
2019-02-09T22:53:05.837Z,6.13
2019-02-09T22:55:33.078Z,6.30
2019-02-09T22:58:00.266Z,6.90
2019-02-09T23:01:01.822Z,4.97
2019-02-09T23:03:33.022Z,9.73
2019-02-09T23:06:31.195Z,5.50
2019-02-09T23:08:58.502Z,7.07
2019-02-09T23:11:25.717Z,5.53
2019-02-09T23:13:52.912Z,5.20
2019-02-09T23:16:20.117Z,6.60
2019-02-09T23:18:47.327Z,6.37
2019-02-09T23:21:14.515Z,7.33
2019-02-09T23:23:41.685Z,6.63
2019-02-09T23:26:08.883Z,4.73
2019-02-09T23:28:36.076Z,10.37
2019-02-09T23:31:03.303Z,5.07
2019-02-09T23:33:30.497Z,7.80
2019-02-09T23:35:57.692Z,9.13
2019-02-09T23:38:24.950Z,4.83
2019-02-09T23:40:52.105Z,4.90
2019-02-09T23:43:19.321Z,6.00
2019-02-09T23:45:46.483Z,5.80
2019-02-09T23:48:13.745Z,3.87
2019-02-09T23:50:40.892Z,6.77
2019-02-09T23:53:08.098Z,7.93
2019-02-09T23:55:35.306Z,5.73
2019-02-09T23:58:02.555Z,5.97
